sensor_id;sensor_type;location;lat;lon;timestamp;temperature;humidity
55313;DHT22;46892;45.668;11.756;2023-08-08T00:00:50;18.70;59.90
55313;DHT22;46892;45.668;11.756;2023-08-08T00:03:16;18.70;60.60
55313;DHT22;46892;45.668;11.756;2023-08-08T00:05:41;18.70;60.50
55313;DHT22;46892;45.668;11.756;2023-08-08T00:08:07;18.60;60.80
55313;DHT22;46892;45.668;11.756;2023-08-08T00:10:33;18.70;60.70
55313;DHT22;46892;45.668;11.756;2023-08-08T00:12:59;18.70;60.70
55313;DHT22;46892;45.668;11.756;2023-08-08T00:15:24;18.70;60.40
55313;DHT22;46892;45.668;11.756;2023-08-08T00:17:50;18.60;60.10
55313;DHT22;46892;45.668;11.756;2023-08-08T00:20:16;18.70;60.00
55313;DHT22;46892;45.668;11.756;2023-08-08T00:22:41;18.70;60.20
55313;DHT22;46892;45.668;11.756;2023-08-08T00:25:07;18.80;60.60
55313;DHT22;46892;45.668;11.756;2023-08-08T00:27:34;18.80;59.90
55313;DHT22;46892;45.668;11.756;2023-08-08T00:30:00;18.80;59.80
55313;DHT22;46892;45.668;11.756;2023-08-08T00:32:26;18.70;59.70
55313;DHT22;46892;45.668;11.756;2023-08-08T00:34:52;18.70;59.60
55313;DHT22;46892;45.668;11.756;2023-08-08T00:37:18;18.70;59.70
55313;DHT22;46892;45.668;11.756;2023-08-08T00:39:44;18.60;59.60
55313;DHT22;46892;45.668;11.756;2023-08-08T00:42:12;18.60;59.80
55313;DHT22;46892;45.668;11.756;2023-08-08T00:44:39;18.60;59.90
55313;DHT22;46892;45.668;11.756;2023-08-08T00:47:07;18.60;59.20
55313;DHT22;46892;45.668;11.756;2023-08-08T00:49:33;18.60;59.40
55313;DHT22;46892;45.668;11.756;2023-08-08T00:51:58;18.50;59.10
55313;DHT22;46892;45.668;11.756;2023-08-08T00:54:24;18.50;59.00
55313;DHT22;46892;45.668;11.756;2023-08-08T00:56:50;18.50;58.50
55313;DHT22;46892;45.668;11.756;2023-08-08T00:59:18;18.50;58.20
55313;DHT22;46892;45.668;11.756;2023-08-08T01:01:44;18.40;58.50
55313;DHT22;46892;45.668;11.756;2023-08-08T01:04:11;18.40;57.80
55313;DHT22;46892;45.668;11.756;2023-08-08T01:07:01;18.40;56.70
55313;DHT22;46892;45.668;11.756;2023-08-08T01:09:36;18.40;56.70
55313;DHT22;46892;45.668;11.756;2023-08-08T01:12:03;18.30;57.00
55313;DHT22;46892;45.668;11.756;2023-08-08T01:14:30;18.30;56.70
55313;DHT22;46892;45.668;11.756;2023-08-08T01:16:57;18.30;56.70
55313;DHT22;46892;45.668;11.756;2023-08-08T01:19:27;18.30;57.30
55313;DHT22;46892;45.668;11.756;2023-08-08T01:21:54;18.30;58.10
55313;DHT22;46892;45.668;11.756;2023-08-08T01:24:23;18.30;58.80
55313;DHT22;46892;45.668;11.756;2023-08-08T01:26:53;18.30;59.30
55313;DHT22;46892;45.668;11.756;2023-08-08T01:29:19;18.30;57.00
55313;DHT22;46892;45.668;11.756;2023-08-08T01:31:45;18.40;56.60
55313;DHT22;46892;45.668;11.756;2023-08-08T01:34:11;18.60;54.90
55313;DHT22;46892;45.668;11.756;2023-08-08T01:36:56;18.50;53.10
55313;DHT22;46892;45.668;11.756;2023-08-08T01:39:26;18.40;52.80
55313;DHT22;46892;45.668;11.756;2023-08-08T01:41:54;18.30;52.70
55313;DHT22;46892;45.668;11.756;2023-08-08T01:44:21;18.30;53.10
55313;DHT22;46892;45.668;11.756;2023-08-08T01:46:48;18.20;53.20
55313;DHT22;46892;45.668;11.756;2023-08-08T01:49:14;18.20;52.60
55313;DHT22;46892;45.668;11.756;2023-08-08T01:51:40;18.20;52.60
55313;DHT22;46892;45.668;11.756;2023-08-08T01:54:06;18.00;52.50
55313;DHT22;46892;45.668;11.756;2023-08-08T01:56:32;18.00;52.90
55313;DHT22;46892;45.668;11.756;2023-08-08T01:58:57;18.00;52.00
55313;DHT22;46892;45.668;11.756;2023-08-08T02:01:23;18.00;52.30
55313;DHT22;46892;45.668;11.756;2023-08-08T02:03:49;17.80;52.40
55313;DHT22;46892;45.668;11.756;2023-08-08T02:06:15;17.80;52.50
55313;DHT22;46892;45.668;11.756;2023-08-08T02:08:40;17.80;52.60
55313;DHT22;46892;45.668;11.756;2023-08-08T02:11:06;17.80;52.00
55313;DHT22;46892;45.668;11.756;2023-08-08T02:13:32;17.90;51.40
55313;DHT22;46892;45.668;11.756;2023-08-08T02:15:58;17.80;51.80
55313;DHT22;46892;45.668;11.756;2023-08-08T02:18:23;17.80;50.20
55313;DHT22;46892;45.668;11.756;2023-08-08T02:20:49;17.80;51.10
55313;DHT22;46892;45.668;11.756;2023-08-08T02:23:15;17.80;50.50
55313;DHT22;46892;45.668;11.756;2023-08-08T02:25:40;17.80;50.30
55313;DHT22;46892;45.668;11.756;2023-08-08T02:28:06;17.80;51.80
55313;DHT22;46892;45.668;11.756;2023-08-08T02:30:32;17.80;51.50
55313;DHT22;46892;45.668;11.756;2023-08-08T02:32:58;17.70;50.80
55313;DHT22;46892;45.668;11.756;2023-08-08T02:35:23;17.70;50.50
55313;DHT22;46892;45.668;11.756;2023-08-08T02:37:49;17.80;50.00
55313;DHT22;46892;45.668;11.756;2023-08-08T02:40:15;17.80;50.50
55313;DHT22;46892;45.668;11.756;2023-08-08T02:42:40;17.80;50.50
55313;DHT22;46892;45.668;11.756;2023-08-08T02:45:06;17.80;50.40
55313;DHT22;46892;45.668;11.756;2023-08-08T02:47:32;17.70;50.50
55313;DHT22;46892;45.668;11.756;2023-08-08T02:49:58;17.80;50.90
55313;DHT22;46892;45.668;11.756;2023-08-08T02:52:24;17.80;51.00
55313;DHT22;46892;45.668;11.756;2023-08-08T02:54:49;17.80;50.90
55313;DHT22;46892;45.668;11.756;2023-08-08T02:57:16;17.80;51.40
55313;DHT22;46892;45.668;11.756;2023-08-08T02:59:42;17.80;50.80
55313;DHT22;46892;45.668;11.756;2023-08-08T03:02:08;17.70;51.50
55313;DHT22;46892;45.668;11.756;2023-08-08T03:04:33;17.70;50.90
55313;DHT22;46892;45.668;11.756;2023-08-08T03:06:59;17.70;51.50
55313;DHT22;46892;45.668;11.756;2023-08-08T03:09:28;17.70;52.40
55313;DHT22;46892;45.668;11.756;2023-08-08T03:11:53;17.70;52.10
55313;DHT22;46892;45.668;11.756;2023-08-08T03:14:19;17.70;51.80
55313;DHT22;46892;45.668;11.756;2023-08-08T03:16:45;17.70;51.10
55313;DHT22;46892;45.668;11.756;2023-08-08T03:19:11;17.70;50.90
55313;DHT22;46892;45.668;11.756;2023-08-08T03:21:37;17.80;50.80
55313;DHT22;46892;45.668;11.756;2023-08-08T03:24:02;17.80;51.00
55313;DHT22;46892;45.668;11.756;2023-08-08T03:26:28;17.70;50.70
55313;DHT22;46892;45.668;11.756;2023-08-08T03:28:54;17.80;51.40
55313;DHT22;46892;45.668;11.756;2023-08-08T03:31:20;17.80;51.40
55313;DHT22;46892;45.668;11.756;2023-08-08T03:33:46;17.80;51.20
55313;DHT22;46892;45.668;11.756;2023-08-08T03:36:13;17.80;51.90
55313;DHT22;46892;45.668;11.756;2023-08-08T03:38:40;17.80;51.20
55313;DHT22;46892;45.668;11.756;2023-08-08T03:41:09;17.70;51.20
55313;DHT22;46892;45.668;11.756;2023-08-08T03:43:35;17.70;50.60
55313;DHT22;46892;45.668;11.756;2023-08-08T03:46:01;17.70;51.20
55313;DHT22;46892;45.668;11.756;2023-08-08T03:48:26;17.70;51.10
55313;DHT22;46892;45.668;11.756;2023-08-08T03:50:52;17.80;49.90
55313;DHT22;46892;45.668;11.756;2023-08-08T03:53:18;17.80;50.90
55313;DHT22;46892;45.668;11.756;2023-08-08T03:55:44;17.80;50.70
55313;DHT22;46892;45.668;11.756;2023-08-08T03:58:09;17.80;50.70
55313;DHT22;46892;45.668;11.756;2023-08-08T04:00:35;17.80;51.10
55313;DHT22;46892;45.668;11.756;2023-08-08T04:03:01;17.80;50.80
55313;DHT22;46892;45.668;11.756;2023-08-08T04:05:27;17.80;51.00
55313;DHT22;46892;45.668;11.756;2023-08-08T04:07:53;17.80;51.10
55313;DHT22;46892;45.668;11.756;2023-08-08T04:10:18;17.80;51.00
55313;DHT22;46892;45.668;11.756;2023-08-08T04:12:44;17.80;51.00
55313;DHT22;46892;45.668;11.756;2023-08-08T04:15:10;17.80;51.80
55313;DHT22;46892;45.668;11.756;2023-08-08T04:17:36;17.80;52.20
55313;DHT22;46892;45.668;11.756;2023-08-08T04:20:02;17.80;53.00
55313;DHT22;46892;45.668;11.756;2023-08-08T04:22:31;17.70;53.70
55313;DHT22;46892;45.668;11.756;2023-08-08T04:24:56;17.70;54.70
55313;DHT22;46892;45.668;11.756;2023-08-08T04:27:22;17.50;56.90
55313;DHT22;46892;45.668;11.756;2023-08-08T04:29:48;17.50;56.80
55313;DHT22;46892;45.668;11.756;2023-08-08T04:32:13;17.50;56.00
55313;DHT22;46892;45.668;11.756;2023-08-08T04:34:39;17.60;57.60
55313;DHT22;46892;45.668;11.756;2023-08-08T04:37:05;17.60;56.20
55313;DHT22;46892;45.668;11.756;2023-08-08T04:39:31;17.60;58.40
55313;DHT22;46892;45.668;11.756;2023-08-08T04:41:57;17.50;58.20
55313;DHT22;46892;45.668;11.756;2023-08-08T04:44:22;17.60;58.90
55313;DHT22;46892;45.668;11.756;2023-08-08T04:46:48;17.70;56.70
55313;DHT22;46892;45.668;11.756;2023-08-08T04:49:14;17.80;56.80
55313;DHT22;46892;45.668;11.756;2023-08-08T04:51:39;17.90;56.70
55313;DHT22;46892;45.668;11.756;2023-08-08T04:54:05;18.10;56.90
55313;DHT22;46892;45.668;11.756;2023-08-08T04:56:31;18.30;57.70
55313;DHT22;46892;45.668;11.756;2023-08-08T04:58:57;18.40;57.00
55313;DHT22;46892;45.668;11.756;2023-08-08T05:01:22;18.30;57.60
55313;DHT22;46892;45.668;11.756;2023-08-08T05:03:48;18.30;58.20
55313;DHT22;46892;45.668;11.756;2023-08-08T05:06:15;18.30;59.60
55313;DHT22;46892;45.668;11.756;2023-08-08T05:08:40;18.20;59.10
55313;DHT22;46892;45.668;11.756;2023-08-08T05:11:06;18.10;59.50
55313;DHT22;46892;45.668;11.756;2023-08-08T05:13:32;18.20;58.70
55313;DHT22;46892;45.668;11.756;2023-08-08T05:15:58;18.40;57.90
55313;DHT22;46892;45.668;11.756;2023-08-08T05:18:23;18.80;56.80
55313;DHT22;46892;45.668;11.756;2023-08-08T05:20:49;19.10;56.90
55313;DHT22;46892;45.668;11.756;2023-08-08T05:23:15;19.30;56.10
55313;DHT22;46892;45.668;11.756;2023-08-08T05:25:41;19.50;55.00
55313;DHT22;46892;45.668;11.756;2023-08-08T05:28:07;19.70;54.60
55313;DHT22;46892;45.668;11.756;2023-08-08T05:30:33;19.80;53.80
55313;DHT22;46892;45.668;11.756;2023-08-08T05:32:59;19.70;52.90
55313;DHT22;46892;45.668;11.756;2023-08-08T05:35:24;19.60;54.10
55313;DHT22;46892;45.668;11.756;2023-08-08T05:37:50;19.50;55.40
55313;DHT22;46892;45.668;11.756;2023-08-08T05:40:16;19.40;57.30
55313;DHT22;46892;45.668;11.756;2023-08-08T05:42:42;19.30;57.40
55313;DHT22;46892;45.668;11.756;2023-08-08T05:45:08;19.30;56.80
55313;DHT22;46892;45.668;11.756;2023-08-08T05:47:34;19.30;57.60
55313;DHT22;46892;45.668;11.756;2023-08-08T05:49:59;19.50;56.60
55313;DHT22;46892;45.668;11.756;2023-08-08T05:52:25;19.50;57.40
55313;DHT22;46892;45.668;11.756;2023-08-08T05:54:51;19.50;57.80
55313;DHT22;46892;45.668;11.756;2023-08-08T05:57:16;19.40;57.00
55313;DHT22;46892;45.668;11.756;2023-08-08T05:59:42;19.40;57.30
55313;DHT22;46892;45.668;11.756;2023-08-08T06:02:10;19.50;57.50
55313;DHT22;46892;45.668;11.756;2023-08-08T06:04:36;19.60;58.60
55313;DHT22;46892;45.668;11.756;2023-08-08T06:07:02;19.70;58.30
55313;DHT22;46892;45.668;11.756;2023-08-08T06:09:27;19.80;58.10
55313;DHT22;46892;45.668;11.756;2023-08-08T06:11:53;19.90;57.80
55313;DHT22;46892;45.668;11.756;2023-08-08T06:14:19;19.80;55.20
55313;DHT22;46892;45.668;11.756;2023-08-08T06:16:45;19.70;55.40
55313;DHT22;46892;45.668;11.756;2023-08-08T06:19:12;19.70;55.50
55313;DHT22;46892;45.668;11.756;2023-08-08T06:21:40;19.60;55.60
55313;DHT22;46892;45.668;11.756;2023-08-08T06:24:06;19.70;55.40
55313;DHT22;46892;45.668;11.756;2023-08-08T06:26:31;20.00;55.70
55313;DHT22;46892;45.668;11.756;2023-08-08T06:28:57;20.30;55.80
55313;DHT22;46892;45.668;11.756;2023-08-08T06:31:23;20.70;55.50
55313;DHT22;46892;45.668;11.756;2023-08-08T06:33:49;21.00;53.60
55313;DHT22;46892;45.668;11.756;2023-08-08T06:36:15;21.40;54.10
55313;DHT22;46892;45.668;11.756;2023-08-08T06:38:40;21.60;50.90
55313;DHT22;46892;45.668;11.756;2023-08-08T06:41:06;21.70;52.60
55313;DHT22;46892;45.668;11.756;2023-08-08T06:43:32;21.90;50.90
55313;DHT22;46892;45.668;11.756;2023-08-08T06:45:58;22.00;50.50
55313;DHT22;46892;45.668;11.756;2023-08-08T06:48:24;22.20;51.40
55313;DHT22;46892;45.668;11.756;2023-08-08T06:50:50;22.30;49.90
55313;DHT22;46892;45.668;11.756;2023-08-08T06:53:15;22.40;47.40
55313;DHT22;46892;45.668;11.756;2023-08-08T06:55:41;22.50;48.10
55313;DHT22;46892;45.668;11.756;2023-08-08T06:58:07;22.80;47.90
55313;DHT22;46892;45.668;11.756;2023-08-08T07:00:33;23.00;47.60
55313;DHT22;46892;45.668;11.756;2023-08-08T07:02:58;23.20;46.10
55313;DHT22;46892;45.668;11.756;2023-08-08T07:05:25;23.10;47.20
55313;DHT22;46892;45.668;11.756;2023-08-08T07:07:52;23.00;48.00
55313;DHT22;46892;45.668;11.756;2023-08-08T07:10:18;22.90;48.40
55313;DHT22;46892;45.668;11.756;2023-08-08T07:12:44;23.10;50.10
55313;DHT22;46892;45.668;11.756;2023-08-08T07:15:10;23.00;45.70
55313;DHT22;46892;45.668;11.756;2023-08-08T07:17:37;22.80;48.60
55313;DHT22;46892;45.668;11.756;2023-08-08T07:20:03;22.80;48.30
55313;DHT22;46892;45.668;11.756;2023-08-08T07:22:29;22.80;48.00
55313;DHT22;46892;45.668;11.756;2023-08-08T07:24:55;22.80;49.10
55313;DHT22;46892;45.668;11.756;2023-08-08T07:27:21;22.80;48.20
55313;DHT22;46892;45.668;11.756;2023-08-08T07:29:47;22.70;48.70
55313;DHT22;46892;45.668;11.756;2023-08-08T07:32:13;22.70;49.90
55313;DHT22;46892;45.668;11.756;2023-08-08T07:34:38;22.70;50.70
55313;DHT22;46892;45.668;11.756;2023-08-08T07:37:05;22.80;50.00
55313;DHT22;46892;45.668;11.756;2023-08-08T07:39:31;22.80;49.20
55313;DHT22;46892;45.668;11.756;2023-08-08T07:41:57;22.90;48.50
55313;DHT22;46892;45.668;11.756;2023-08-08T07:44:23;22.90;49.00
55313;DHT22;46892;45.668;11.756;2023-08-08T07:46:48;22.80;48.30
55313;DHT22;46892;45.668;11.756;2023-08-08T07:49:14;22.80;47.50
55313;DHT22;46892;45.668;11.756;2023-08-08T07:51:40;22.90;48.60
55313;DHT22;46892;45.668;11.756;2023-08-08T07:54:05;23.10;46.50
55313;DHT22;46892;45.668;11.756;2023-08-08T07:56:34;23.00;47.70
55313;DHT22;46892;45.668;11.756;2023-08-08T07:59:00;22.90;46.50
55313;DHT22;46892;45.668;11.756;2023-08-08T08:01:27;23.20;49.70
55313;DHT22;46892;45.668;11.756;2023-08-08T08:03:53;23.20;45.70
55313;DHT22;46892;45.668;11.756;2023-08-08T08:06:19;23.20;45.80
55313;DHT22;46892;45.668;11.756;2023-08-08T08:08:45;23.20;46.60
55313;DHT22;46892;45.668;11.756;2023-08-08T08:11:11;23.20;46.10
55313;DHT22;46892;45.668;11.756;2023-08-08T08:13:39;22.90;44.90
55313;DHT22;46892;45.668;11.756;2023-08-08T08:16:04;22.80;47.50
55313;DHT22;46892;45.668;11.756;2023-08-08T08:18:31;22.90;47.50
55313;DHT22;46892;45.668;11.756;2023-08-08T08:20:57;23.00;46.60
55313;DHT22;46892;45.668;11.756;2023-08-08T08:23:23;23.00;47.80
55313;DHT22;46892;45.668;11.756;2023-08-08T08:25:49;23.00;50.10
55313;DHT22;46892;45.668;11.756;2023-08-08T08:28:16;23.10;49.30
55313;DHT22;46892;45.668;11.756;2023-08-08T08:30:42;23.10;47.80
55313;DHT22;46892;45.668;11.756;2023-08-08T08:33:09;23.10;48.80
55313;DHT22;46892;45.668;11.756;2023-08-08T08:35:35;23.10;47.40
55313;DHT22;46892;45.668;11.756;2023-08-08T08:38:01;23.20;50.90
55313;DHT22;46892;45.668;11.756;2023-08-08T08:40:28;23.00;48.80
55313;DHT22;46892;45.668;11.756;2023-08-08T08:42:54;22.90;50.20
55313;DHT22;46892;45.668;11.756;2023-08-08T08:45:20;22.80;49.10
55313;DHT22;46892;45.668;11.756;2023-08-08T08:47:47;22.80;49.10
55313;DHT22;46892;45.668;11.756;2023-08-08T08:50:15;22.90;51.00
55313;DHT22;46892;45.668;11.756;2023-08-08T08:52:43;23.00;51.30
55313;DHT22;46892;45.668;11.756;2023-08-08T08:55:08;23.20;49.80
55313;DHT22;46892;45.668;11.756;2023-08-08T08:57:36;23.30;48.30
55313;DHT22;46892;45.668;11.756;2023-08-08T09:00:02;23.30;50.00
55313;DHT22;46892;45.668;11.756;2023-08-08T09:02:29;23.20;51.40
55313;DHT22;46892;45.668;11.756;2023-08-08T09:04:54;23.30;50.40
55313;DHT22;46892;45.668;11.756;2023-08-08T09:07:23;23.20;49.90
55313;DHT22;46892;45.668;11.756;2023-08-08T09:09:52;23.30;49.80
55313;DHT22;46892;45.668;11.756;2023-08-08T09:12:18;23.50;49.50
55313;DHT22;46892;45.668;11.756;2023-08-08T09:14:44;23.50;51.70
55313;DHT22;46892;45.668;11.756;2023-08-08T09:17:13;23.60;49.10
55313;DHT22;46892;45.668;11.756;2023-08-08T09:19:45;23.60;52.60
55313;DHT22;46892;45.668;11.756;2023-08-08T09:22:13;23.80;50.30
55313;DHT22;46892;45.668;11.756;2023-08-08T09:24:42;23.90;50.90
55313;DHT22;46892;45.668;11.756;2023-08-08T09:27:09;23.90;50.90
55313;DHT22;46892;45.668;11.756;2023-08-08T09:29:35;23.90;51.60
55313;DHT22;46892;45.668;11.756;2023-08-08T09:32:07;23.90;50.40
55313;DHT22;46892;45.668;11.756;2023-08-08T09:34:33;23.80;49.40
55313;DHT22;46892;45.668;11.756;2023-08-08T09:36:59;23.80;51.80
55313;DHT22;46892;45.668;11.756;2023-08-08T09:39:26;23.80;51.20
55313;DHT22;46892;45.668;11.756;2023-08-08T09:41:52;23.90;53.20
55313;DHT22;46892;45.668;11.756;2023-08-08T09:44:18;24.00;49.60
55313;DHT22;46892;45.668;11.756;2023-08-08T09:46:44;24.00;50.50
55313;DHT22;46892;45.668;11.756;2023-08-08T09:49:12;24.10;49.10
55313;DHT22;46892;45.668;11.756;2023-08-08T09:51:39;24.20;51.20
55313;DHT22;46892;45.668;11.756;2023-08-08T09:54:05;24.10;50.40
55313;DHT22;46892;45.668;11.756;2023-08-08T09:56:34;24.20;52.90
55313;DHT22;46892;45.668;11.756;2023-08-08T09:59:01;24.20;51.50
55313;DHT22;46892;45.668;11.756;2023-08-08T10:01:27;24.20;50.30
55313;DHT22;46892;45.668;11.756;2023-08-08T10:03:53;24.20;50.80
55313;DHT22;46892;45.668;11.756;2023-08-08T10:06:19;24.20;50.80
55313;DHT22;46892;45.668;11.756;2023-08-08T10:08:45;24.20;50.20
55313;DHT22;46892;45.668;11.756;2023-08-08T10:11:12;24.10;49.20
55313;DHT22;46892;45.668;11.756;2023-08-08T10:13:47;24.00;50.50
55313;DHT22;46892;45.668;11.756;2023-08-08T10:16:16;24.10;52.10
55313;DHT22;46892;45.668;11.756;2023-08-08T10:18:42;24.10;51.90
55313;DHT22;46892;45.668;11.756;2023-08-08T10:21:08;24.20;52.30
55313;DHT22;46892;45.668;11.756;2023-08-08T10:23:36;24.20;49.90
55313;DHT22;46892;45.668;11.756;2023-08-08T10:26:03;24.20;51.40
55313;DHT22;46892;45.668;11.756;2023-08-08T10:28:32;24.10;52.20
55313;DHT22;46892;45.668;11.756;2023-08-08T10:30:59;24.10;51.10
55313;DHT22;46892;45.668;11.756;2023-08-08T10:33:47;24.00;51.70
55313;DHT22;46892;45.668;11.756;2023-08-08T10:36:13;24.10;52.00
55313;DHT22;46892;45.668;11.756;2023-08-08T10:38:44;24.20;51.90
55313;DHT22;46892;45.668;11.756;2023-08-08T10:41:13;24.20;51.00
55313;DHT22;46892;45.668;11.756;2023-08-08T10:43:54;24.20;48.50
55313;DHT22;46892;45.668;11.756;2023-08-08T10:46:27;24.10;49.60
55313;DHT22;46892;45.668;11.756;2023-08-08T10:48:57;24.00;50.60
55313;DHT22;46892;45.668;11.756;2023-08-08T10:51:37;24.00;52.80
55313;DHT22;46892;45.668;11.756;2023-08-08T10:54:08;24.20;50.50
55313;DHT22;46892;45.668;11.756;2023-08-08T10:56:37;24.30;50.10
55313;DHT22;46892;45.668;11.756;2023-08-08T10:59:16;24.20;50.00
55313;DHT22;46892;45.668;11.756;2023-08-08T11:01:46;24.20;52.90
55313;DHT22;46892;45.668;11.756;2023-08-08T11:04:13;24.30;53.60
55313;DHT22;46892;45.668;11.756;2023-08-08T11:06:39;24.40;50.20
55313;DHT22;46892;45.668;11.756;2023-08-08T11:09:06;24.40;49.60
55313;DHT22;46892;45.668;11.756;2023-08-08T11:11:42;24.40;50.70
55313;DHT22;46892;45.668;11.756;2023-08-08T11:14:19;24.40;50.40
55313;DHT22;46892;45.668;11.756;2023-08-08T11:16:48;24.40;52.10
55313;DHT22;46892;45.668;11.756;2023-08-08T11:19:14;24.50;50.50
55313;DHT22;46892;45.668;11.756;2023-08-08T11:21:43;24.50;48.20
55313;DHT22;46892;45.668;11.756;2023-08-08T11:24:09;24.50;51.90
55313;DHT22;46892;45.668;11.756;2023-08-08T11:26:36;24.50;51.30
55313;DHT22;46892;45.668;11.756;2023-08-08T11:29:04;24.70;49.80
55313;DHT22;46892;45.668;11.756;2023-08-08T11:31:31;24.70;50.30
55313;DHT22;46892;45.668;11.756;2023-08-08T11:33:58;24.70;52.50
55313;DHT22;46892;45.668;11.756;2023-08-08T11:36:29;24.70;52.00
55313;DHT22;46892;45.668;11.756;2023-08-08T11:38:55;24.60;53.10
55313;DHT22;46892;45.668;11.756;2023-08-08T11:41:23;24.60;52.60
55313;DHT22;46892;45.668;11.756;2023-08-08T11:43:50;24.50;51.20
55313;DHT22;46892;45.668;11.756;2023-08-08T11:46:17;24.50;52.10
55313;DHT22;46892;45.668;11.756;2023-08-08T11:48:46;24.50;52.20
55313;DHT22;46892;45.668;11.756;2023-08-08T11:51:14;24.60;54.80
55313;DHT22;46892;45.668;11.756;2023-08-08T11:53:51;24.70;53.70
55313;DHT22;46892;45.668;11.756;2023-08-08T11:56:20;24.70;53.90
55313;DHT22;46892;45.668;11.756;2023-08-08T11:58:51;24.60;52.00
55313;DHT22;46892;45.668;11.756;2023-08-08T12:01:26;24.60;51.70
55313;DHT22;46892;45.668;11.756;2023-08-08T12:03:52;24.70;56.10
55313;DHT22;46892;45.668;11.756;2023-08-08T12:06:18;24.80;55.10
55313;DHT22;46892;45.668;11.756;2023-08-08T12:08:45;24.90;54.90
55313;DHT22;46892;45.668;11.756;2023-08-08T12:11:12;24.90;55.40
55313;DHT22;46892;45.668;11.756;2023-08-08T12:13:40;24.90;55.30
55313;DHT22;46892;45.668;11.756;2023-08-08T12:16:10;24.90;57.00
55313;DHT22;46892;45.668;11.756;2023-08-08T12:18:37;24.90;58.60
55313;DHT22;46892;45.668;11.756;2023-08-08T12:21:08;24.90;54.80
55313;DHT22;46892;45.668;11.756;2023-08-08T12:23:35;24.90;55.30
55313;DHT22;46892;45.668;11.756;2023-08-08T12:26:04;24.80;56.90
55313;DHT22;46892;45.668;11.756;2023-08-08T12:28:33;24.80;57.40
55313;DHT22;46892;45.668;11.756;2023-08-08T12:30:59;24.80;57.50
55313;DHT22;46892;45.668;11.756;2023-08-08T12:33:25;24.70;57.10
55313;DHT22;46892;45.668;11.756;2023-08-08T12:35:50;24.70;58.50
55313;DHT22;46892;45.668;11.756;2023-08-08T12:38:16;24.80;58.60
55313;DHT22;46892;45.668;11.756;2023-08-08T12:40:42;24.90;57.80
55313;DHT22;46892;45.668;11.756;2023-08-08T12:43:09;25.10;55.50
55313;DHT22;46892;45.668;11.756;2023-08-08T12:45:39;25.20;56.30
55313;DHT22;46892;45.668;11.756;2023-08-08T12:48:05;25.30;54.20
55313;DHT22;46892;45.668;11.756;2023-08-08T12:50:31;25.20;54.60
55313;DHT22;46892;45.668;11.756;2023-08-08T12:52:56;25.20;56.50
55313;DHT22;46892;45.668;11.756;2023-08-08T12:55:22;25.20;56.80
55313;DHT22;46892;45.668;11.756;2023-08-08T12:57:48;25.20;59.40
55313;DHT22;46892;45.668;11.756;2023-08-08T13:00:15;25.20;57.00
55313;DHT22;46892;45.668;11.756;2023-08-08T13:02:42;25.00;57.90
55313;DHT22;46892;45.668;11.756;2023-08-08T13:05:09;25.00;57.80
55313;DHT22;46892;45.668;11.756;2023-08-08T13:07:35;25.20;57.10
55313;DHT22;46892;45.668;11.756;2023-08-08T13:10:01;25.30;55.30
55313;DHT22;46892;45.668;11.756;2023-08-08T13:12:27;25.30;55.10
55313;DHT22;46892;45.668;11.756;2023-08-08T13:14:53;25.50;56.30
55313;DHT22;46892;45.668;11.756;2023-08-08T13:17:18;25.50;54.30
55313;DHT22;46892;45.668;11.756;2023-08-08T13:19:45;25.60;53.40
55313;DHT22;46892;45.668;11.756;2023-08-08T13:22:11;25.70;55.10
55313;DHT22;46892;45.668;11.756;2023-08-08T13:24:38;25.70;54.00
55313;DHT22;46892;45.668;11.756;2023-08-08T13:27:04;25.60;54.80
55313;DHT22;46892;45.668;11.756;2023-08-08T13:29:29;25.60;54.30
55313;DHT22;46892;45.668;11.756;2023-08-08T13:31:56;25.40;52.40
55313;DHT22;46892;45.668;11.756;2023-08-08T13:34:22;25.50;53.10
55313;DHT22;46892;45.668;11.756;2023-08-08T13:36:47;25.40;53.60
55313;DHT22;46892;45.668;11.756;2023-08-08T13:39:13;25.50;54.60
55313;DHT22;46892;45.668;11.756;2023-08-08T13:41:39;25.70;53.50
55313;DHT22;46892;45.668;11.756;2023-08-08T13:44:05;25.80;54.10
55313;DHT22;46892;45.668;11.756;2023-08-08T13:46:30;26.00;54.50
55313;DHT22;46892;45.668;11.756;2023-08-08T13:48:56;25.90;54.20
55313;DHT22;46892;45.668;11.756;2023-08-08T13:51:22;26.10;56.70
55313;DHT22;46892;45.668;11.756;2023-08-08T13:53:48;26.20;55.60
55313;DHT22;46892;45.668;11.756;2023-08-08T13:56:17;26.20;55.20
55313;DHT22;46892;45.668;11.756;2023-08-08T13:58:43;26.10;56.00
55313;DHT22;46892;45.668;11.756;2023-08-08T14:01:08;26.20;57.30
55313;DHT22;46892;45.668;11.756;2023-08-08T14:03:34;26.30;55.80
55313;DHT22;46892;45.668;11.756;2023-08-08T14:06:00;26.20;56.40
55313;DHT22;46892;45.668;11.756;2023-08-08T14:08:25;26.10;54.40
55313;DHT22;46892;45.668;11.756;2023-08-08T14:10:51;26.00;54.70
55313;DHT22;46892;45.668;11.756;2023-08-08T14:13:17;26.00;54.70
55313;DHT22;46892;45.668;11.756;2023-08-08T14:15:45;26.00;55.70
55313;DHT22;46892;45.668;11.756;2023-08-08T14:18:10;26.00;54.20
55313;DHT22;46892;45.668;11.756;2023-08-08T14:20:36;26.00;54.70
55313;DHT22;46892;45.668;11.756;2023-08-08T14:23:03;26.00;54.70
55313;DHT22;46892;45.668;11.756;2023-08-08T14:25:29;26.00;56.00
55313;DHT22;46892;45.668;11.756;2023-08-08T14:27:55;25.90;55.40
55313;DHT22;46892;45.668;11.756;2023-08-08T14:30:22;25.90;53.20
55313;DHT22;46892;45.668;11.756;2023-08-08T14:32:48;25.80;54.20
55313;DHT22;46892;45.668;11.756;2023-08-08T14:35:14;26.00;54.80
55313;DHT22;46892;45.668;11.756;2023-08-08T14:37:40;26.00;55.80
55313;DHT22;46892;45.668;11.756;2023-08-08T14:40:06;26.00;54.40
55313;DHT22;46892;45.668;11.756;2023-08-08T14:42:32;26.00;56.10
55313;DHT22;46892;45.668;11.756;2023-08-08T14:44:57;26.00;56.10
55313;DHT22;46892;45.668;11.756;2023-08-08T14:47:23;25.90;57.90
55313;DHT22;46892;45.668;11.756;2023-08-08T14:49:49;25.80;55.00
55313;DHT22;46892;45.668;11.756;2023-08-08T14:52:16;25.80;55.80
55313;DHT22;46892;45.668;11.756;2023-08-08T14:54:42;25.80;55.50
55313;DHT22;46892;45.668;11.756;2023-08-08T14:57:08;25.70;54.10
55313;DHT22;46892;45.668;11.756;2023-08-08T14:59:34;25.80;54.40
55313;DHT22;46892;45.668;11.756;2023-08-08T15:02:00;25.80;55.20
55313;DHT22;46892;45.668;11.756;2023-08-08T15:04:25;25.80;53.40
55313;DHT22;46892;45.668;11.756;2023-08-08T15:06:51;25.70;54.30
55313;DHT22;46892;45.668;11.756;2023-08-08T15:09:17;25.80;54.80
55313;DHT22;46892;45.668;11.756;2023-08-08T15:11:43;25.80;56.00